createdAt,value
2022-10-06T00:01:43.266Z,101367.97
2022-10-06T00:09:18.484Z,101383.19
2022-10-06T00:16:52.257Z,101391.22
2022-10-06T00:24:27.387Z,101397.53
2022-10-06T00:32:01.192Z,101399.50
2022-10-06T00:39:36.476Z,101405.84
2022-10-06T00:47:10.252Z,101414.88
2022-10-06T00:54:45.509Z,101408.88
2022-10-06T01:02:23.568Z,101409.94
2022-10-06T01:09:59.014Z,101419.97
2022-10-06T01:17:38.170Z,101416.44
2022-10-06T01:25:15.958Z,101426.38
2022-10-06T01:32:49.742Z,101433.69
2022-10-06T01:40:25.655Z,101437.28
2022-10-06T01:47:59.408Z,101436.47
2022-10-06T01:55:35.304Z,101443.59
2022-10-06T02:03:09.008Z,101428.34
2022-10-06T02:10:44.194Z,101432.78
2022-10-06T02:18:17.858Z,101440.75
2022-10-06T02:25:59.550Z,101452.34
2022-10-06T02:33:34.103Z,101453.22
2022-10-06T02:41:10.786Z,101463.91
2022-10-06T02:48:44.567Z,101479.03
2022-10-06T02:56:22.040Z,101479.00
2022-10-06T03:03:55.844Z,101486.19
2022-10-06T03:11:32.481Z,101499.63
2022-10-06T03:19:07.544Z,101520.31
2022-10-06T03:26:43.265Z,101536.53
2022-10-06T03:34:17.001Z,101557.34
2022-10-06T03:41:52.155Z,101584.47
2022-10-06T03:49:25.915Z,101615.09
2022-10-06T03:57:01.151Z,101617.81
2022-10-06T04:04:34.841Z,101642.09
2022-10-06T04:12:10.311Z,101652.88
2022-10-06T04:19:44.137Z,101656.47
2022-10-06T04:27:35.902Z,101680.69
2022-10-06T04:35:10.474Z,101687.84
2022-10-06T04:42:45.755Z,101703.13
2022-10-06T04:50:19.629Z,101706.69
2022-10-06T04:57:56.173Z,101723.72
2022-10-06T05:05:30.034Z,101744.31
2022-10-06T05:13:06.055Z,101766.72
2022-10-06T05:20:39.915Z,101796.28
2022-10-06T05:28:15.145Z,101804.28
2022-10-06T05:35:52.713Z,101829.38
2022-10-06T05:43:27.881Z,101863.41
2022-10-06T05:51:03.625Z,101871.41
2022-10-06T05:58:40.592Z,101896.38
2022-10-06T06:06:18.164Z,101920.38
2022-10-06T06:13:53.474Z,101952.53
2022-10-06T06:21:28.196Z,101965.91
2022-10-06T06:29:04.108Z,101985.63
2022-10-06T06:36:41.092Z,102008.09
2022-10-06T06:44:16.447Z,102017.13
2022-10-06T06:51:50.957Z,102040.63
2022-10-06T06:59:26.412Z,102063.94
2022-10-06T07:07:00.159Z,102068.41
2022-10-06T07:14:35.388Z,102089.03
2022-10-06T07:22:33.582Z,102097.28
2022-10-06T07:30:11.616Z,102116.31
2022-10-06T07:37:45.312Z,102119.50
2022-10-06T07:45:53.643Z,102139.44
2022-10-06T07:53:28.725Z,102143.44
2022-10-06T08:01:07.374Z,102166.28
2022-10-06T08:08:42.113Z,102175.63
2022-10-06T08:16:19.406Z,102192.97
2022-10-06T08:23:54.686Z,102213.31
2022-10-06T08:31:30.807Z,102223.31
2022-10-06T08:39:07.352Z,102244.09
2022-10-06T08:46:50.183Z,102249.53
2022-10-06T08:54:30.303Z,102261.97
2022-10-06T09:02:25.915Z,102270.13
2022-10-06T09:10:18.579Z,102286.41
2022-10-06T09:18:01.027Z,102283.25
2022-10-06T09:25:35.157Z,102288.59
2022-10-06T09:33:19.695Z,102301.34
2022-10-06T09:40:55.639Z,102309.38
2022-10-06T09:48:30.785Z,102298.53
2022-10-06T09:56:06.099Z,102312.50
2022-10-06T10:04:08.371Z,102311.78
2022-10-06T10:12:01.665Z,102321.00
2022-10-06T10:19:42.910Z,102329.97
2022-10-06T10:27:23.175Z,102347.91
2022-10-06T10:35:06.035Z,102350.38
2022-10-06T10:42:48.119Z,102352.34
2022-10-06T10:50:28.797Z,102360.31
2022-10-06T10:58:19.140Z,102365.72
2022-10-06T11:06:20.374Z,102370.00
2022-10-06T11:13:59.675Z,102359.28
2022-10-06T11:21:40.780Z,102377.50
2022-10-06T11:29:25.460Z,102385.69
2022-10-06T11:37:09.364Z,102390.31
2022-10-06T11:44:46.678Z,102398.59
2022-10-06T11:52:45.513Z,102388.75
2022-10-06T12:00:42.705Z,102388.72
2022-10-06T12:08:17.941Z,102386.03
2022-10-06T12:24:25.553Z,102398.38
2022-10-06T12:32:07.130Z,102399.50
2022-10-06T12:39:42.350Z,102402.38
2022-10-06T12:47:21.584Z,102406.06
2022-10-06T12:55:17.306Z,102402.50
2022-10-06T13:02:53.788Z,102415.19
2022-10-06T13:10:30.557Z,102407.00
2022-10-06T13:18:12.905Z,102419.53
2022-10-06T13:25:50.484Z,102418.59
2022-10-06T13:33:26.646Z,102424.97
2022-10-06T13:41:16.998Z,102422.38
2022-10-06T13:48:54.386Z,102437.94
2022-10-06T13:56:37.875Z,102439.66
2022-10-06T14:04:18.328Z,102429.63
2022-10-06T14:11:55.003Z,102447.63
2022-10-06T14:19:35.408Z,102435.84
2022-10-06T14:27:10.628Z,102435.75
2022-10-06T14:34:44.925Z,102445.63
2022-10-06T14:42:22.510Z,102441.94
2022-10-06T14:49:56.282Z,102449.94
2022-10-06T14:57:31.288Z,102439.91
2022-10-06T15:05:05.056Z,102441.59
2022-10-06T15:12:40.310Z,102450.53
2022-10-06T15:20:14.311Z,102451.31
2022-10-06T15:28:07.026Z,102460.22
2022-10-06T15:35:41.595Z,102451.03
2022-10-06T15:43:36.860Z,102459.84
2022-10-06T15:51:11.354Z,102463.25
2022-10-06T15:58:48.769Z,102462.09
2022-10-06T16:06:40.207Z,102471.72
2022-10-06T16:14:16.339Z,102469.59
2022-10-06T16:21:53.457Z,102481.00
2022-10-06T16:29:32.836Z,102484.00
2022-10-06T16:37:06.869Z,102482.59
2022-10-06T16:44:42.371Z,102500.03
2022-10-06T16:52:16.148Z,102513.75
2022-10-06T16:59:51.283Z,102522.94
2022-10-06T17:07:26.460Z,102523.19
2022-10-06T17:15:01.612Z,102531.53
2022-10-06T17:22:35.274Z,102526.47
2022-10-06T17:30:11.933Z,102530.38
2022-10-06T17:37:45.810Z,102535.13
2022-10-06T17:45:21.536Z,102529.06
2022-10-06T17:52:55.731Z,102533.84
2022-10-06T18:00:31.896Z,102540.41
2022-10-06T18:08:08.783Z,102549.59
2022-10-06T18:15:44.434Z,102543.56
2022-10-06T18:23:18.403Z,102544.97
2022-10-06T18:30:53.579Z,102547.22
2022-10-06T18:38:27.820Z,102553.00
2022-10-06T18:46:22.008Z,102549.47
2022-10-06T18:53:57.175Z,102556.09
2022-10-06T19:01:33.325Z,102564.72
2022-10-06T19:09:07.660Z,102558.88
2022-10-06T19:16:43.305Z,102569.91
2022-10-06T19:24:19.056Z,102581.66
2022-10-06T19:31:56.407Z,102588.34
2022-10-06T19:39:31.621Z,102584.44
2022-10-06T19:47:07.910Z,102593.69
2022-10-06T19:54:42.045Z,102592.28
2022-10-06T20:02:17.289Z,102598.78
2022-10-06T20:09:51.048Z,102599.47
2022-10-06T20:17:26.353Z,102604.28
2022-10-06T20:25:01.929Z,102601.91
2022-10-06T20:32:37.150Z,102605.97
2022-10-06T20:40:28.898Z,102607.34
2022-10-06T20:48:04.174Z,102613.88
2022-10-06T20:55:37.984Z,102617.69
2022-10-06T21:03:14.114Z,102618.38
2022-10-06T21:10:56.696Z,102615.94
2022-10-06T21:18:32.684Z,102601.44
2022-10-06T21:26:07.857Z,102602.72
2022-10-06T21:33:44.610Z,102610.38
2022-10-06T21:41:33.060Z,102592.16
2022-10-06T21:49:11.231Z,102599.56
2022-10-06T21:56:45.298Z,102595.63
2022-10-06T22:04:20.450Z,102594.19
2022-10-06T22:11:54.385Z,102593.81
2022-10-06T22:19:29.579Z,102585.50
2022-10-06T22:27:03.414Z,102576.06
2022-10-06T22:34:38.664Z,102581.78
2022-10-06T22:42:12.445Z,102580.69
2022-10-06T22:49:47.682Z,102577.63
2022-10-06T22:57:21.429Z,102570.88
2022-10-06T23:04:56.698Z,102567.88
2022-10-06T23:12:30.674Z,102561.91
2022-10-06T23:20:06.590Z,102557.22
2022-10-06T23:27:40.691Z,102554.22
2022-10-06T23:35:16.037Z,102548.41
2022-10-06T23:42:49.784Z,102554.44
2022-10-06T23:50:25.000Z,102552.16
2022-10-06T23:57:58.770Z,102560.72
